Weather at Abu Dhabi International Airport

Public forecast

Using degrees Celsius for public forecast. Weather courtesy of forecast.io.

Current aviation weather report (METAR) for Abu Dhabi International Airport

Retrieved 2021/03/04 04:36 UTC (1 hour ago):

OMAA 040436Z 00000KT 1500 0700SE R31L/0600 BCFG SCT010 20/20 Q1015 BECMG 4000 HZ

Aviation forecast (TAF) for Abu Dhabi International Airport

Retrieved 2021-03-04 01:27 UTC (4 hours ago):

TAF OMAA 040124Z 0401/0506 VRB02KT 0200 FG VV/// BECMG 0404/0406 8000 NSW NSC BECMG 0408/0410 34010KT BECMG 0417/0419 10007KT BECMG 0502/0504 16008KT